Kennedale's Hourly Summary for Thursday, April 20, 2017
Hour Temp
(f)
RH
(%)
Solar Rad.
(MJ/m2)
Rainfall
(in)
Wind
(mph)
4/20/2017 12:00 AM 70 85 0 0 0
4/20/2017 1:00 AM 70 85 0 0 0
4/20/2017 2:00 AM 69 88 0 0 0
4/20/2017 3:00 AM 68 90 0 0 0
4/20/2017 4:00 AM 68 89 0 0 0
4/20/2017 5:00 AM 68 86 0 0 0
4/20/2017 6:00 AM 68 84 0 0 0
4/20/2017 7:00 AM 68 82 0.08 0 0
4/20/2017 8:00 AM 69 81 0.42 0 0
4/20/2017 9:00 AM 72 75 1.09 0 0
4/20/2017 10:00 AM 74 71 1.77 0 0
4/20/2017 11:00 AM 75 69 1.47 0 0
4/20/2017 12:00 PM 75 69 0.91 0 0
4/20/2017 1:00 PM 77 67 2.02 0 0
4/20/2017 2:00 PM 79 62 2.58 0 0
4/20/2017 3:00 PM 80 60 2.32 0 0
4/20/2017 4:00 PM 81 56 2.3 0 0
4/20/2017 5:00 PM 80 60 1.43 0 0
4/20/2017 6:00 PM 80 59 0.92 0 0
4/20/2017 7:00 PM 78 63 0.28 0 0
4/20/2017 8:00 PM 76 71 0.01 0 0
4/20/2017 9:00 PM 73 78 0 0 0
4/20/2017 10:00 PM 72 81 0 0 0
4/20/2017 11:00 PM 71 83 0 0 0
Data Summary 73 74 17.60 0.00 0.00